sensor_id;sensor_type;location;lat;lon;timestamp;temperature;humidity
67870;DHT22;54673;52.262;6.830;2023-07-31T00:01:35;18.90;76.10
67870;DHT22;54673;52.262;6.830;2023-07-31T00:04:00;18.90;77.10
67870;DHT22;54673;52.262;6.830;2023-07-31T00:06:26;18.70;75.80
67870;DHT22;54673;52.262;6.830;2023-07-31T00:08:51;18.70;77.10
67870;DHT22;54673;52.262;6.830;2023-07-31T00:11:17;18.70;76.40
67870;DHT22;54673;52.262;6.830;2023-07-31T00:13:42;18.70;76.90
67870;DHT22;54673;52.262;6.830;2023-07-31T00:16:08;18.60;78.10
67870;DHT22;54673;52.262;6.830;2023-07-31T00:18:34;18.60;77.40
67870;DHT22;54673;52.262;6.830;2023-07-31T00:20:59;18.60;77.80
67870;DHT22;54673;52.262;6.830;2023-07-31T00:23:25;18.50;76.90
67870;DHT22;54673;52.262;6.830;2023-07-31T00:25:50;18.80;78.00
67870;DHT22;54673;52.262;6.830;2023-07-31T00:28:16;19.20;77.90
67870;DHT22;54673;52.262;6.830;2023-07-31T00:30:41;18.50;78.00
67870;DHT22;54673;52.262;6.830;2023-07-31T00:33:07;18.50;77.90
67870;DHT22;54673;52.262;6.830;2023-07-31T00:35:32;18.60;78.00
67870;DHT22;54673;52.262;6.830;2023-07-31T00:37:58;18.40;78.20
67870;DHT22;54673;52.262;6.830;2023-07-31T00:40:24;18.40;78.40
67870;DHT22;54673;52.262;6.830;2023-07-31T00:42:49;18.40;77.90
67870;DHT22;54673;52.262;6.830;2023-07-31T00:45:15;18.40;78.60
67870;DHT22;54673;52.262;6.830;2023-07-31T00:47:40;18.30;78.80
67870;DHT22;54673;52.262;6.830;2023-07-31T00:50:07;18.30;78.50
67870;DHT22;54673;52.262;6.830;2023-07-31T00:52:33;18.30;78.80
67870;DHT22;54673;52.262;6.830;2023-07-31T00:54:59;17.90;78.60
67870;DHT22;54673;52.262;6.830;2023-07-31T00:57:25;18.20;79.20
67870;DHT22;54673;52.262;6.830;2023-07-31T00:59:50;18.20;79.30
67870;DHT22;54673;52.262;6.830;2023-07-31T01:02:16;18.20;79.20
67870;DHT22;54673;52.262;6.830;2023-07-31T01:04:43;18.20;80.00
67870;DHT22;54673;52.262;6.830;2023-07-31T01:07:22;18.20;79.60
67870;DHT22;54673;52.262;6.830;2023-07-31T01:10:02;18.20;80.00
67870;DHT22;54673;52.262;6.830;2023-07-31T01:12:31;18.10;80.90
67870;DHT22;54673;52.262;6.830;2023-07-31T01:15:07;18.10;80.40
67870;DHT22;54673;52.262;6.830;2023-07-31T01:17:39;18.10;80.30
67870;DHT22;54673;52.262;6.830;2023-07-31T01:20:18;18.00;80.70
67870;DHT22;54673;52.262;6.830;2023-07-31T01:28:55;18.00;80.60
67870;DHT22;54673;52.262;6.830;2023-07-31T01:31:22;18.00;80.70
67870;DHT22;54673;52.262;6.830;2023-07-31T01:33:50;17.90;80.90
67870;DHT22;54673;52.262;6.830;2023-07-31T01:36:16;17.90;80.00
67870;DHT22;54673;52.262;6.830;2023-07-31T01:38:41;18.80;80.80
67870;DHT22;54673;52.262;6.830;2023-07-31T01:41:07;17.90;81.40
67870;DHT22;54673;52.262;6.830;2023-07-31T01:43:33;17.90;80.30
67870;DHT22;54673;52.262;6.830;2023-07-31T01:45:58;18.00;81.40
67870;DHT22;54673;52.262;6.830;2023-07-31T01:48:24;18.80;81.30
67870;DHT22;54673;52.262;6.830;2023-07-31T01:50:49;17.80;81.40
67870;DHT22;54673;52.262;6.830;2023-07-31T01:53:15;17.80;82.60
67870;DHT22;54673;52.262;6.830;2023-07-31T01:55:41;17.80;81.00
67870;DHT22;54673;52.262;6.830;2023-07-31T01:58:06;17.80;81.90
67870;DHT22;54673;52.262;6.830;2023-07-31T02:00:32;17.80;82.70
67870;DHT22;54673;52.262;6.830;2023-07-31T02:02:59;17.70;81.50
67870;DHT22;54673;52.262;6.830;2023-07-31T02:05:25;17.70;82.40
67870;DHT22;54673;52.262;6.830;2023-07-31T02:07:50;17.80;81.70
67870;DHT22;54673;52.262;6.830;2023-07-31T02:10:16;17.70;82.60
67870;DHT22;54673;52.262;6.830;2023-07-31T02:12:42;17.70;82.20
67870;DHT22;54673;52.262;6.830;2023-07-31T02:15:08;17.70;82.10
67870;DHT22;54673;52.262;6.830;2023-07-31T02:17:33;17.70;82.40
67870;DHT22;54673;52.262;6.830;2023-07-31T02:19:59;17.60;83.10
67870;DHT22;54673;52.262;6.830;2023-07-31T02:22:25;17.60;81.90
67870;DHT22;54673;52.262;6.830;2023-07-31T02:24:50;17.80;82.60
67870;DHT22;54673;52.262;6.830;2023-07-31T02:27:16;17.60;83.50
67870;DHT22;54673;52.262;6.830;2023-07-31T02:29:41;17.50;82.50
67870;DHT22;54673;52.262;6.830;2023-07-31T02:32:07;17.50;83.60
67870;DHT22;54673;52.262;6.830;2023-07-31T02:34:33;17.60;83.60
67870;DHT22;54673;52.262;6.830;2023-07-31T02:36:58;17.50;83.00
67870;DHT22;54673;52.262;6.830;2023-07-31T02:39:24;17.70;83.50
67870;DHT22;54673;52.262;6.830;2023-07-31T02:41:49;17.50;83.50
67870;DHT22;54673;52.262;6.830;2023-07-31T02:44:15;17.50;84.00
67870;DHT22;54673;52.262;6.830;2023-07-31T02:46:41;17.50;84.50
67870;DHT22;54673;52.262;6.830;2023-07-31T02:49:06;17.40;83.60
67870;DHT22;54673;52.262;6.830;2023-07-31T02:51:32;17.40;85.20
67870;DHT22;54673;52.262;6.830;2023-07-31T02:53:58;17.40;85.30
67870;DHT22;54673;52.262;6.830;2023-07-31T02:56:23;17.50;84.40
67870;DHT22;54673;52.262;6.830;2023-07-31T02:58:49;17.40;90.40
67870;DHT22;54673;52.262;6.830;2023-07-31T03:01:14;17.70;86.00
67870;DHT22;54673;52.262;6.830;2023-07-31T03:03:41;17.90;89.00
67870;DHT22;54673;52.262;6.830;2023-07-31T03:06:07;17.40;86.40
67870;DHT22;54673;52.262;6.830;2023-07-31T03:08:32;17.40;90.70
67870;DHT22;54673;52.262;6.830;2023-07-31T03:10:58;17.40;86.70
67870;DHT22;54673;52.262;6.830;2023-07-31T03:13:23;17.40;90.80
67870;DHT22;54673;52.262;6.830;2023-07-31T03:15:49;17.40;88.80
67870;DHT22;54673;52.262;6.830;2023-07-31T03:18:15;17.40;89.70
67870;DHT22;54673;52.262;6.830;2023-07-31T03:20:44;17.40;86.40
67870;DHT22;54673;52.262;6.830;2023-07-31T03:23:10;17.40;86.20
67870;DHT22;54673;52.262;6.830;2023-07-31T03:25:35;17.40;87.80
67870;DHT22;54673;52.262;6.830;2023-07-31T03:28:01;17.30;87.90
67870;DHT22;54673;52.262;6.830;2023-07-31T03:30:27;17.40;87.50
67870;DHT22;54673;52.262;6.830;2023-07-31T03:32:52;17.30;87.80
67870;DHT22;54673;52.262;6.830;2023-07-31T03:35:18;17.30;87.10
67870;DHT22;54673;52.262;6.830;2023-07-31T03:37:44;17.30;88.80
67870;DHT22;54673;52.262;6.830;2023-07-31T03:40:10;17.30;93.00
67870;DHT22;54673;52.262;6.830;2023-07-31T03:42:36;17.30;88.70
67870;DHT22;54673;52.262;6.830;2023-07-31T03:45:01;17.30;90.70
67870;DHT22;54673;52.262;6.830;2023-07-31T03:47:27;17.30;89.40
67870;DHT22;54673;52.262;6.830;2023-07-31T03:49:53;17.30;91.30
67870;DHT22;54673;52.262;6.830;2023-07-31T03:52:18;18.10;90.30
67870;DHT22;54673;52.262;6.830;2023-07-31T03:54:44;17.30;91.50
67870;DHT22;54673;52.262;6.830;2023-07-31T03:57:12;17.50;91.00
67870;DHT22;54673;52.262;6.830;2023-07-31T03:59:38;17.30;90.50
67870;DHT22;54673;52.262;6.830;2023-07-31T04:02:04;17.50;88.80
67870;DHT22;54673;52.262;6.830;2023-07-31T04:04:30;17.30;91.30
67870;DHT22;54673;52.262;6.830;2023-07-31T04:06:55;17.30;90.30
67870;DHT22;54673;52.262;6.830;2023-07-31T04:09:21;17.20;89.90
67870;DHT22;54673;52.262;6.830;2023-07-31T04:11:46;17.30;89.80
67870;DHT22;54673;52.262;6.830;2023-07-31T04:14:12;17.30;91.60
67870;DHT22;54673;52.262;6.830;2023-07-31T04:16:38;17.20;90.00
67870;DHT22;54673;52.262;6.830;2023-07-31T04:19:04;17.20;90.40
67870;DHT22;54673;52.262;6.830;2023-07-31T04:21:29;17.20;90.00
67870;DHT22;54673;52.262;6.830;2023-07-31T04:23:55;17.20;88.70
67870;DHT22;54673;52.262;6.830;2023-07-31T04:26:21;17.20;91.20
67870;DHT22;54673;52.262;6.830;2023-07-31T04:28:47;17.20;91.90
67870;DHT22;54673;52.262;6.830;2023-07-31T04:31:13;17.90;90.50
67870;DHT22;54673;52.262;6.830;2023-07-31T04:33:38;17.20;91.60
67870;DHT22;54673;52.262;6.830;2023-07-31T04:36:05;17.20;89.60
67870;DHT22;54673;52.262;6.830;2023-07-31T04:38:30;18.00;89.20
67870;DHT22;54673;52.262;6.830;2023-07-31T04:40:56;17.10;89.60
67870;DHT22;54673;52.262;6.830;2023-07-31T04:43:21;17.20;91.60
67870;DHT22;54673;52.262;6.830;2023-07-31T04:45:47;17.40;90.90
67870;DHT22;54673;52.262;6.830;2023-07-31T04:48:14;17.20;90.10
67870;DHT22;54673;52.262;6.830;2023-07-31T04:50:40;17.10;90.10
67870;DHT22;54673;52.262;6.830;2023-07-31T04:53:05;17.20;90.40
67870;DHT22;54673;52.262;6.830;2023-07-31T04:55:31;17.20;92.20
67870;DHT22;54673;52.262;6.830;2023-07-31T04:57:58;17.20;92.00
67870;DHT22;54673;52.262;6.830;2023-07-31T05:00:24;17.20;90.80
67870;DHT22;54673;52.262;6.830;2023-07-31T05:02:50;17.20;90.60
67870;DHT22;54673;52.262;6.830;2023-07-31T05:05:15;17.20;90.10
67870;DHT22;54673;52.262;6.830;2023-07-31T05:07:41;17.10;90.10
67870;DHT22;54673;52.262;6.830;2023-07-31T05:10:07;17.10;90.80
67870;DHT22;54673;52.262;6.830;2023-07-31T05:12:32;17.10;91.50
67870;DHT22;54673;52.262;6.830;2023-07-31T05:14:58;17.10;90.30
67870;DHT22;54673;52.262;6.830;2023-07-31T05:17:23;17.60;90.20
67870;DHT22;54673;52.262;6.830;2023-07-31T05:19:49;17.10;89.90
67870;DHT22;54673;52.262;6.830;2023-07-31T05:22:15;17.10;90.60
67870;DHT22;54673;52.262;6.830;2023-07-31T05:24:40;17.10;90.30
67870;DHT22;54673;52.262;6.830;2023-07-31T05:27:06;17.10;91.30
67870;DHT22;54673;52.262;6.830;2023-07-31T05:29:32;17.00;90.00
67870;DHT22;54673;52.262;6.830;2023-07-31T05:31:57;17.00;90.00
67870;DHT22;54673;52.262;6.830;2023-07-31T05:34:23;17.10;90.80
67870;DHT22;54673;52.262;6.830;2023-07-31T05:36:48;17.10;90.70
67870;DHT22;54673;52.262;6.830;2023-07-31T05:39:14;17.10;89.50
67870;DHT22;54673;52.262;6.830;2023-07-31T05:41:40;17.00;90.00
67870;DHT22;54673;52.262;6.830;2023-07-31T05:44:05;17.00;90.60
67870;DHT22;54673;52.262;6.830;2023-07-31T05:46:31;17.60;90.90
67870;DHT22;54673;52.262;6.830;2023-07-31T05:48:56;17.10;90.50
67870;DHT22;54673;52.262;6.830;2023-07-31T05:51:22;17.10;91.40
67870;DHT22;54673;52.262;6.830;2023-07-31T05:53:48;17.10;90.00
67870;DHT22;54673;52.262;6.830;2023-07-31T05:56:13;17.00;90.70
67870;DHT22;54673;52.262;6.830;2023-07-31T05:58:39;17.00;90.60
67870;DHT22;54673;52.262;6.830;2023-07-31T06:01:04;17.10;90.60
67870;DHT22;54673;52.262;6.830;2023-07-31T06:03:30;17.70;90.50
67870;DHT22;54673;52.262;6.830;2023-07-31T06:05:56;17.00;90.20
67870;DHT22;54673;52.262;6.830;2023-07-31T06:08:21;17.10;91.00
67870;DHT22;54673;52.262;6.830;2023-07-31T06:10:47;17.40;90.30
67870;DHT22;54673;52.262;6.830;2023-07-31T06:13:12;17.60;90.50
67870;DHT22;54673;52.262;6.830;2023-07-31T06:15:38;17.00;90.40
67870;DHT22;54673;52.262;6.830;2023-07-31T06:18:04;17.00;90.80
67870;DHT22;54673;52.262;6.830;2023-07-31T06:20:33;17.10;90.80
67870;DHT22;54673;52.262;6.830;2023-07-31T06:22:59;17.10;92.00
67870;DHT22;54673;52.262;6.830;2023-07-31T06:25:25;17.10;90.40
67870;DHT22;54673;52.262;6.830;2023-07-31T06:27:50;17.10;91.20
67870;DHT22;54673;52.262;6.830;2023-07-31T06:30:16;17.20;91.10
67870;DHT22;54673;52.262;6.830;2023-07-31T06:32:42;17.00;90.40
67870;DHT22;54673;52.262;6.830;2023-07-31T06:35:08;17.00;90.80
67870;DHT22;54673;52.262;6.830;2023-07-31T06:37:34;17.00;91.10
67870;DHT22;54673;52.262;6.830;2023-07-31T06:39:59;17.30;91.30
67870;DHT22;54673;52.262;6.830;2023-07-31T06:42:25;17.50;91.70
67870;DHT22;54673;52.262;6.830;2023-07-31T06:44:50;17.10;91.40
67870;DHT22;54673;52.262;6.830;2023-07-31T06:47:16;17.00;91.50
67870;DHT22;54673;52.262;6.830;2023-07-31T06:49:41;17.00;91.20
67870;DHT22;54673;52.262;6.830;2023-07-31T06:52:07;17.00;91.60
67870;DHT22;54673;52.262;6.830;2023-07-31T06:54:33;17.10;90.70
67870;DHT22;54673;52.262;6.830;2023-07-31T06:56:58;17.00;90.70
67870;DHT22;54673;52.262;6.830;2023-07-31T06:59:24;17.00;90.40
67870;DHT22;54673;52.262;6.830;2023-07-31T07:01:49;18.00;91.70
67870;DHT22;54673;52.262;6.830;2023-07-31T07:04:15;17.00;92.20
67870;DHT22;54673;52.262;6.830;2023-07-31T07:06:41;17.00;90.80
67870;DHT22;54673;52.262;6.830;2023-07-31T07:09:07;17.60;92.00
67870;DHT22;54673;52.262;6.830;2023-07-31T07:11:33;17.00;90.70
67870;DHT22;54673;52.262;6.830;2023-07-31T07:13:59;17.00;90.90
67870;DHT22;54673;52.262;6.830;2023-07-31T07:16:26;17.10;95.60
67870;DHT22;54673;52.262;6.830;2023-07-31T07:18:51;17.50;92.40
67870;DHT22;54673;52.262;6.830;2023-07-31T07:21:17;17.00;90.90
67870;DHT22;54673;52.262;6.830;2023-07-31T07:23:43;17.00;91.80
67870;DHT22;54673;52.262;6.830;2023-07-31T07:26:09;17.10;93.20
67870;DHT22;54673;52.262;6.830;2023-07-31T07:28:34;17.00;91.30
67870;DHT22;54673;52.262;6.830;2023-07-31T07:31:02;17.10;91.90
67870;DHT22;54673;52.262;6.830;2023-07-31T07:33:28;17.00;91.30
67870;DHT22;54673;52.262;6.830;2023-07-31T07:36:00;17.00;91.00
67870;DHT22;54673;52.262;6.830;2023-07-31T07:38:42;17.20;93.00
67870;DHT22;54673;52.262;6.830;2023-07-31T07:41:16;17.10;92.10
67870;DHT22;54673;52.262;6.830;2023-07-31T07:43:42;17.10;92.40
67870;DHT22;54673;52.262;6.830;2023-07-31T07:46:07;17.10;92.20
67870;DHT22;54673;52.262;6.830;2023-07-31T07:48:33;17.50;93.20
67870;DHT22;54673;52.262;6.830;2023-07-31T07:50:59;17.10;92.40
67870;DHT22;54673;52.262;6.830;2023-07-31T07:53:24;17.10;91.70
67870;DHT22;54673;52.262;6.830;2023-07-31T07:55:50;17.20;92.50
67870;DHT22;54673;52.262;6.830;2023-07-31T07:58:16;17.10;92.30
67870;DHT22;54673;52.262;6.830;2023-07-31T08:00:47;17.10;93.10
67870;DHT22;54673;52.262;6.830;2023-07-31T08:03:13;17.10;92.10
67870;DHT22;54673;52.262;6.830;2023-07-31T08:05:39;17.20;93.90
67870;DHT22;54673;52.262;6.830;2023-07-31T08:08:04;17.90;92.50
67870;DHT22;54673;52.262;6.830;2023-07-31T08:10:31;17.10;93.60
67870;DHT22;54673;52.262;6.830;2023-07-31T08:12:57;17.10;92.40
67870;DHT22;54673;52.262;6.830;2023-07-31T08:15:22;16.10;92.80
67870;DHT22;54673;52.262;6.830;2023-07-31T08:17:48;17.20;94.10
67870;DHT22;54673;52.262;6.830;2023-07-31T08:20:14;17.20;94.90
67870;DHT22;54673;52.262;6.830;2023-07-31T08:22:39;17.20;92.50
67870;DHT22;54673;52.262;6.830;2023-07-31T08:25:06;17.20;92.90
67870;DHT22;54673;52.262;6.830;2023-07-31T08:27:32;17.20;94.20
67870;DHT22;54673;52.262;6.830;2023-07-31T08:29:57;18.00;95.00
67870;DHT22;54673;52.262;6.830;2023-07-31T08:32:23;17.30;92.20
67870;DHT22;54673;52.262;6.830;2023-07-31T08:34:48;17.90;92.70
67870;DHT22;54673;52.262;6.830;2023-07-31T08:37:14;17.20;93.00
67870;DHT22;54673;52.262;6.830;2023-07-31T08:39:40;17.90;94.50
67870;DHT22;54673;52.262;6.830;2023-07-31T08:42:08;17.30;93.20
67870;DHT22;54673;52.262;6.830;2023-07-31T08:44:35;17.30;92.80
67870;DHT22;54673;52.262;6.830;2023-07-31T08:47:01;17.30;94.00
67870;DHT22;54673;52.262;6.830;2023-07-31T08:49:29;17.30;92.70
67870;DHT22;54673;52.262;6.830;2023-07-31T08:51:56;18.60;94.60
67870;DHT22;54673;52.262;6.830;2023-07-31T08:54:23;18.00;95.40
67870;DHT22;54673;52.262;6.830;2023-07-31T08:56:50;17.40;93.20
67870;DHT22;54673;52.262;6.830;2023-07-31T08:59:17;17.40;94.40
67870;DHT22;54673;52.262;6.830;2023-07-31T09:01:50;17.90;94.10
67870;DHT22;54673;52.262;6.830;2023-07-31T09:04:18;17.40;92.70
67870;DHT22;54673;52.262;6.830;2023-07-31T09:06:45;17.40;96.00
67870;DHT22;54673;52.262;6.830;2023-07-31T09:09:12;17.40;95.20
67870;DHT22;54673;52.262;6.830;2023-07-31T09:11:37;17.50;96.90
67870;DHT22;54673;52.262;6.830;2023-07-31T09:14:04;17.50;93.30
67870;DHT22;54673;52.262;6.830;2023-07-31T09:16:34;17.50;97.50
67870;DHT22;54673;52.262;6.830;2023-07-31T09:19:00;17.50;95.80
67870;DHT22;54673;52.262;6.830;2023-07-31T09:21:27;17.50;96.60
67870;DHT22;54673;52.262;6.830;2023-07-31T09:23:53;18.50;98.70
67870;DHT22;54673;52.262;6.830;2023-07-31T09:26:36;17.50;93.30
67870;DHT22;54673;52.262;6.830;2023-07-31T09:29:05;17.50;94.20
67870;DHT22;54673;52.262;6.830;2023-07-31T09:31:41;18.40;94.90
67870;DHT22;54673;52.262;6.830;2023-07-31T09:34:07;17.60;94.10
67870;DHT22;54673;52.262;6.830;2023-07-31T09:36:34;18.30;94.60
67870;DHT22;54673;52.262;6.830;2023-07-31T09:39:04;18.50;94.90
67870;DHT22;54673;52.262;6.830;2023-07-31T09:41:31;17.60;97.60
67870;DHT22;54673;52.262;6.830;2023-07-31T09:43:56;17.60;95.00
67870;DHT22;54673;52.262;6.830;2023-07-31T09:46:22;17.60;94.70
67870;DHT22;54673;52.262;6.830;2023-07-31T09:48:48;18.20;96.50
67870;DHT22;54673;52.262;6.830;2023-07-31T09:51:13;17.70;96.00
67870;DHT22;54673;52.262;6.830;2023-07-31T09:53:39;17.70;96.10
67870;DHT22;54673;52.262;6.830;2023-07-31T09:56:05;17.70;95.40
67870;DHT22;54673;52.262;6.830;2023-07-31T09:58:34;18.60;97.00
67870;DHT22;54673;52.262;6.830;2023-07-31T10:01:02;17.80;95.10
67870;DHT22;54673;52.262;6.830;2023-07-31T10:03:29;17.80;95.00
67870;DHT22;54673;52.262;6.830;2023-07-31T10:05:58;18.90;98.20
67870;DHT22;54673;52.262;6.830;2023-07-31T10:08:30;18.20;94.90
67870;DHT22;54673;52.262;6.830;2023-07-31T10:10:59;17.80;95.30
67870;DHT22;54673;52.262;6.830;2023-07-31T10:13:25;17.80;98.40
67870;DHT22;54673;52.262;6.830;2023-07-31T10:15:53;17.80;96.00
67870;DHT22;54673;52.262;6.830;2023-07-31T10:18:20;17.30;95.10
67870;DHT22;54673;52.262;6.830;2023-07-31T10:20:47;17.80;96.00
67870;DHT22;54673;52.262;6.830;2023-07-31T10:23:13;17.80;96.10
67870;DHT22;54673;52.262;6.830;2023-07-31T10:25:40;17.90;97.10
67870;DHT22;54673;52.262;6.830;2023-07-31T10:28:05;17.90;96.40
67870;DHT22;54673;52.262;6.830;2023-07-31T10:30:33;17.90;96.50
67870;DHT22;54673;52.262;6.830;2023-07-31T10:33:00;19.10;96.70
67870;DHT22;54673;52.262;6.830;2023-07-31T10:35:27;18.70;97.90
67870;DHT22;54673;52.262;6.830;2023-07-31T10:37:52;18.00;96.40
67870;DHT22;54673;52.262;6.830;2023-07-31T10:40:23;19.00;98.70
67870;DHT22;54673;52.262;6.830;2023-07-31T10:42:51;18.00;96.70
67870;DHT22;54673;52.262;6.830;2023-07-31T10:45:27;18.10;97.20
67870;DHT22;54673;52.262;6.830;2023-07-31T10:48:03;18.00;96.50
67870;DHT22;54673;52.262;6.830;2023-07-31T10:50:31;18.10;96.80
67870;DHT22;54673;52.262;6.830;2023-07-31T10:52:59;18.00;97.20
67870;DHT22;54673;52.262;6.830;2023-07-31T10:58:08;18.10;96.80
67870;DHT22;54673;52.262;6.830;2023-07-31T11:00:40;18.20;97.30
67870;DHT22;54673;52.262;6.830;2023-07-31T11:08:24;18.20;97.30
67870;DHT22;54673;52.262;6.830;2023-07-31T11:11:05;18.70;97.30
67870;DHT22;54673;52.262;6.830;2023-07-31T11:13:33;18.30;99.10
67870;DHT22;54673;52.262;6.830;2023-07-31T11:15:59;18.30;98.20
67870;DHT22;54673;52.262;6.830;2023-07-31T11:18:28;18.40;96.50
67870;DHT22;54673;52.262;6.830;2023-07-31T11:20:54;18.40;99.10
67870;DHT22;54673;52.262;6.830;2023-07-31T11:23:22;18.40;98.30
67870;DHT22;54673;52.262;6.830;2023-07-31T11:25:49;18.70;97.70
67870;DHT22;54673;52.262;6.830;2023-07-31T11:28:17;18.40;95.90
67870;DHT22;54673;52.262;6.830;2023-07-31T11:30:48;18.40;96.70
67870;DHT22;54673;52.262;6.830;2023-07-31T11:33:17;18.50;97.20
67870;DHT22;54673;52.262;6.830;2023-07-31T11:35:45;18.40;97.50
67870;DHT22;54673;52.262;6.830;2023-07-31T11:38:12;18.80;96.30
67870;DHT22;54673;52.262;6.830;2023-07-31T11:40:46;18.50;96.30
67870;DHT22;54673;52.262;6.830;2023-07-31T11:43:12;18.80;95.70
67870;DHT22;54673;52.262;6.830;2023-07-31T11:45:51;18.60;95.60
67870;DHT22;54673;52.262;6.830;2023-07-31T11:48:24;18.60;96.00
67870;DHT22;54673;52.262;6.830;2023-07-31T11:50:54;18.60;95.80
67870;DHT22;54673;52.262;6.830;2023-07-31T11:53:33;18.70;95.80
67870;DHT22;54673;52.262;6.830;2023-07-31T11:56:01;18.70;96.00
67870;DHT22;54673;52.262;6.830;2023-07-31T11:58:29;18.70;95.80
67870;DHT22;54673;52.262;6.830;2023-07-31T12:00:56;19.30;96.30
67870;DHT22;54673;52.262;6.830;2023-07-31T12:03:23;19.80;96.40
67870;DHT22;54673;52.262;6.830;2023-07-31T12:05:49;18.70;96.50
67870;DHT22;54673;52.262;6.830;2023-07-31T12:08:15;18.80;96.70
67870;DHT22;54673;52.262;6.830;2023-07-31T12:10:41;18.80;95.20
67870;DHT22;54673;52.262;6.830;2023-07-31T12:13:12;19.70;97.40
67870;DHT22;54673;52.262;6.830;2023-07-31T12:15:45;18.80;96.60
67870;DHT22;54673;52.262;6.830;2023-07-31T12:18:16;18.90;97.60
67870;DHT22;54673;52.262;6.830;2023-07-31T12:20:45;19.00;96.60
67870;DHT22;54673;52.262;6.830;2023-07-31T12:23:21;19.50;95.60
67870;DHT22;54673;52.262;6.830;2023-07-31T12:28:26;19.10;96.30
67870;DHT22;54673;52.262;6.830;2023-07-31T12:30:51;19.00;97.10
67870;DHT22;54673;52.262;6.830;2023-07-31T12:33:19;19.10;95.80
67870;DHT22;54673;52.262;6.830;2023-07-31T12:35:46;19.10;94.70
67870;DHT22;54673;52.262;6.830;2023-07-31T12:38:13;19.30;95.80
67870;DHT22;54673;52.262;6.830;2023-07-31T12:40:40;19.20;94.10
67870;DHT22;54673;52.262;6.830;2023-07-31T12:43:07;19.20;94.90
67870;DHT22;54673;52.262;6.830;2023-07-31T12:45:33;19.20;95.80
67870;DHT22;54673;52.262;6.830;2023-07-31T12:48:00;19.50;94.90
67870;DHT22;54673;52.262;6.830;2023-07-31T12:50:26;19.30;95.10
67870;DHT22;54673;52.262;6.830;2023-07-31T12:52:53;19.30;93.70
67870;DHT22;54673;52.262;6.830;2023-07-31T12:55:20;19.30;94.80
67870;DHT22;54673;52.262;6.830;2023-07-31T12:57:46;19.80;94.40
67870;DHT22;54673;52.262;6.830;2023-07-31T13:00:12;19.40;94.40
67870;DHT22;54673;52.262;6.830;2023-07-31T13:02:38;18.80;93.60
67870;DHT22;54673;52.262;6.830;2023-07-31T13:05:04;19.40;93.60
67870;DHT22;54673;52.262;6.830;2023-07-31T13:07:30;19.40;92.90
67870;DHT22;54673;52.262;6.830;2023-07-31T13:09:56;19.40;93.50
67870;DHT22;54673;52.262;6.830;2023-07-31T13:12:21;19.40;94.10
67870;DHT22;54673;52.262;6.830;2023-07-31T13:14:47;19.40;94.00
67870;DHT22;54673;52.262;6.830;2023-07-31T13:17:12;19.40;93.60
67870;DHT22;54673;52.262;6.830;2023-07-31T13:19:38;19.40;92.90
67870;DHT22;54673;52.262;6.830;2023-07-31T13:22:04;19.40;93.00
67870;DHT22;54673;52.262;6.830;2023-07-31T13:24:29;19.40;92.90
67870;DHT22;54673;52.262;6.830;2023-07-31T13:26:56;19.80;93.40
67870;DHT22;54673;52.262;6.830;2023-07-31T13:29:22;19.40;93.30
67870;DHT22;54673;52.262;6.830;2023-07-31T13:31:48;19.50;92.80
67870;DHT22;54673;52.262;6.830;2023-07-31T13:34:13;19.50;93.20
67870;DHT22;54673;52.262;6.830;2023-07-31T13:36:39;19.80;92.80
67870;DHT22;54673;52.262;6.830;2023-07-31T13:39:04;19.50;92.80
67870;DHT22;54673;52.262;6.830;2023-07-31T13:41:30;19.60;94.60
67870;DHT22;54673;52.262;6.830;2023-07-31T13:43:56;19.20;93.60
67870;DHT22;54673;52.262;6.830;2023-07-31T13:46:21;19.50;93.80
67870;DHT22;54673;52.262;6.830;2023-07-31T13:48:47;19.50;92.90
67870;DHT22;54673;52.262;6.830;2023-07-31T13:51:13;19.50;92.90
67870;DHT22;54673;52.262;6.830;2023-07-31T13:53:38;19.50;93.60
67870;DHT22;54673;52.262;6.830;2023-07-31T13:56:04;19.50;92.10
67870;DHT22;54673;52.262;6.830;2023-07-31T13:58:29;19.50;92.50
67870;DHT22;54673;52.262;6.830;2023-07-31T14:00:55;19.50;92.60
67870;DHT22;54673;52.262;6.830;2023-07-31T14:03:21;20.00;93.40
67870;DHT22;54673;52.262;6.830;2023-07-31T14:05:46;19.50;92.40
67870;DHT22;54673;52.262;6.830;2023-07-31T14:08:12;19.50;94.10
67870;DHT22;54673;52.262;6.830;2023-07-31T14:10:37;19.50;92.80
67870;DHT22;54673;52.262;6.830;2023-07-31T14:13:03;19.50;92.90
67870;DHT22;54673;52.262;6.830;2023-07-31T14:15:29;19.60;92.60
67870;DHT22;54673;52.262;6.830;2023-07-31T14:17:54;19.70;92.60
67870;DHT22;54673;52.262;6.830;2023-07-31T14:20:20;19.60;92.90
67870;DHT22;54673;52.262;6.830;2023-07-31T14:22:45;19.60;92.90
67870;DHT22;54673;52.262;6.830;2023-07-31T14:25:11;19.60;92.60
67870;DHT22;54673;52.262;6.830;2023-07-31T14:27:37;19.60;92.60
67870;DHT22;54673;52.262;6.830;2023-07-31T14:30:03;19.60;93.50
67870;DHT22;54673;52.262;6.830;2023-07-31T14:32:29;19.60;94.40
67870;DHT22;54673;52.262;6.830;2023-07-31T14:34:55;19.60;92.80
67870;DHT22;54673;52.262;6.830;2023-07-31T14:37:21;18.90;92.50
67870;DHT22;54673;52.262;6.830;2023-07-31T14:39:46;19.60;92.60
67870;DHT22;54673;52.262;6.830;2023-07-31T14:42:12;19.60;91.90
67870;DHT22;54673;52.262;6.830;2023-07-31T14:44:38;19.70;92.50
67870;DHT22;54673;52.262;6.830;2023-07-31T14:47:04;19.70;91.90
67870;DHT22;54673;52.262;6.830;2023-07-31T14:49:29;19.70;91.90
67870;DHT22;54673;52.262;6.830;2023-07-31T14:51:55;19.70;91.90
67870;DHT22;54673;52.262;6.830;2023-07-31T14:54:21;20.10;92.20
67870;DHT22;54673;52.262;6.830;2023-07-31T14:56:46;19.70;92.10
67870;DHT22;54673;52.262;6.830;2023-07-31T14:59:12;19.70;92.10
67870;DHT22;54673;52.262;6.830;2023-07-31T15:01:38;19.70;92.00
67870;DHT22;54673;52.262;6.830;2023-07-31T15:04:04;19.70;92.20
67870;DHT22;54673;52.262;6.830;2023-07-31T15:06:29;19.70;93.10
67870;DHT22;54673;52.262;6.830;2023-07-31T15:08:55;19.70;92.50
67870;DHT22;54673;52.262;6.830;2023-07-31T15:11:20;19.70;92.10
67870;DHT22;54673;52.262;6.830;2023-07-31T15:13:46;19.70;93.00
67870;DHT22;54673;52.262;6.830;2023-07-31T15:16:12;19.70;92.00
67870;DHT22;54673;52.262;6.830;2023-07-31T15:18:38;19.70;92.00
67870;DHT22;54673;52.262;6.830;2023-07-31T15:21:03;19.70;92.30
67870;DHT22;54673;52.262;6.830;2023-07-31T15:23:31;19.70;93.00
67870;DHT22;54673;52.262;6.830;2023-07-31T15:25:56;19.70;92.40
67870;DHT22;54673;52.262;6.830;2023-07-31T15:28:22;19.70;92.50
67870;DHT22;54673;52.262;6.830;2023-07-31T15:30:48;19.70;92.90
67870;DHT22;54673;52.262;6.830;2023-07-31T15:33:14;19.70;92.80
67870;DHT22;54673;52.262;6.830;2023-07-31T15:35:40;19.60;93.30
67870;DHT22;54673;52.262;6.830;2023-07-31T15:38:06;19.60;92.50
67870;DHT22;54673;52.262;6.830;2023-07-31T15:40:31;19.70;92.20
67870;DHT22;54673;52.262;6.830;2023-07-31T15:42:57;19.60;92.60